createdAt,value
2023-01-09T00:00:22.963Z,95
2023-01-09T00:00:54.854Z,95
2023-01-09T00:01:26.026Z,95
2023-01-09T00:01:58.776Z,95
2023-01-09T00:02:29.880Z,95
2023-01-09T00:03:02.772Z,95
2023-01-09T00:03:33.938Z,95
2023-01-09T00:04:06.828Z,95
2023-01-09T00:04:37.807Z,95
2023-01-09T00:05:10.929Z,95
2023-01-09T00:05:41.786Z,95
2023-01-09T00:06:14.720Z,95
2023-01-09T00:06:45.822Z,95
2023-01-09T00:07:18.827Z,95
2023-01-09T00:07:49.831Z,95
2023-01-09T00:08:22.619Z,95
2023-01-09T00:08:54.052Z,95
2023-01-09T00:09:26.916Z,96
2023-01-09T00:09:57.781Z,96
2023-01-09T00:10:31.189Z,96
2023-01-09T00:11:01.954Z,96
2023-01-09T00:11:34.707Z,96
2023-01-09T00:12:05.754Z,96
2023-01-09T00:12:38.853Z,96
2023-01-09T00:13:09.782Z,96
2023-01-09T00:13:42.763Z,96
2023-01-09T00:14:13.840Z,96
2023-01-09T00:14:46.775Z,96
2023-01-09T00:15:18.799Z,96
2023-01-09T00:15:51.078Z,96
2023-01-09T00:16:22.068Z,96
2023-01-09T00:16:54.887Z,96
2023-01-09T00:17:25.790Z,96
2023-01-09T00:17:58.691Z,96
2023-01-09T00:18:30.010Z,96
2023-01-09T00:19:02.677Z,96
2023-01-09T00:19:33.864Z,96
2023-01-09T00:20:06.939Z,96
2023-01-09T00:20:37.820Z,96
2023-01-09T00:21:10.724Z,96
2023-01-09T00:21:41.843Z,96
2023-01-09T00:22:14.854Z,96
2023-01-09T00:22:45.808Z,96
2023-01-09T00:23:01.989Z,96
2023-01-09T00:23:33.910Z,96
2023-01-09T00:24:05.845Z,96
2023-01-09T00:24:37.907Z,96
2023-01-09T00:25:10.029Z,96
2023-01-09T00:25:42.793Z,96
2023-01-09T00:26:13.889Z,96
2023-01-09T00:26:46.536Z,96
2023-01-09T00:27:17.738Z,96
2023-01-09T00:27:50.612Z,96
2023-01-09T00:28:21.963Z,96
2023-01-09T00:28:54.907Z,96
2023-01-09T00:29:25.795Z,96
2023-01-09T00:29:58.705Z,96
2023-01-09T00:30:30.999Z,96
2023-01-09T00:31:02.902Z,96
2023-01-09T00:31:33.958Z,96
2023-01-09T00:32:07.012Z,96
2023-01-09T00:32:37.785Z,96
2023-01-09T00:33:10.762Z,96
2023-01-09T00:33:41.875Z,96
2023-01-09T00:34:14.958Z,96
2023-01-09T00:34:45.895Z,96
2023-01-09T00:35:18.982Z,96
2023-01-09T00:35:49.992Z,96
2023-01-09T00:36:22.741Z,96
2023-01-09T00:36:53.848Z,96
2023-01-09T00:37:26.886Z,96
2023-01-09T00:37:57.699Z,96
2023-01-09T00:38:30.600Z,96
2023-01-09T00:39:01.985Z,96
2023-01-09T00:39:34.806Z,96
2023-01-09T00:40:06.159Z,96
2023-01-09T00:40:38.613Z,96
2023-01-09T00:41:09.858Z,96
2023-01-09T00:41:42.569Z,96
2023-01-09T00:42:13.843Z,96
2023-01-09T00:42:46.653Z,96
2023-01-09T00:43:17.887Z,96
2023-01-09T00:43:50.575Z,96
2023-01-09T00:44:21.665Z,96
2023-01-09T00:44:54.657Z,96
2023-01-09T00:45:26.782Z,96
2023-01-09T00:45:58.756Z,96
2023-01-09T00:46:29.718Z,96
2023-01-09T00:47:02.716Z,96
2023-01-09T00:47:33.637Z,96
2023-01-09T00:48:06.775Z,96
2023-01-09T00:48:37.814Z,96
2023-01-09T00:49:10.692Z,96
2023-01-09T00:49:41.818Z,96
2023-01-09T00:50:15.061Z,96
2023-01-09T00:50:45.928Z,96
2023-01-09T00:51:18.903Z,96
2023-01-09T00:51:49.864Z,96
2023-01-09T00:52:22.961Z,96
2023-01-09T00:52:53.694Z,96
2023-01-09T00:53:26.708Z,96
2023-01-09T00:53:57.818Z,96
2023-01-09T00:54:30.742Z,96
2023-01-09T00:55:02.248Z,96
2023-01-09T00:55:34.687Z,96
2023-01-09T00:56:05.941Z,96
2023-01-09T00:56:38.464Z,96
2023-01-09T00:57:09.863Z,96
2023-01-09T00:57:42.767Z,96
2023-01-09T00:58:13.831Z,96
2023-01-09T00:58:46.656Z,96
2023-01-09T00:59:17.923Z,96
2023-01-09T00:59:50.788Z,96
2023-01-09T01:00:22.862Z,96
2023-01-09T01:00:55.071Z,96
2023-01-09T01:01:25.961Z,96
2023-01-09T01:01:59.078Z,96
2023-01-09T01:02:29.954Z,96
2023-01-09T01:03:02.842Z,96
2023-01-09T01:03:34.065Z,96
2023-01-09T01:04:06.501Z,96
2023-01-09T01:04:37.928Z,96
2023-01-09T01:05:11.148Z,96
2023-01-09T01:05:41.874Z,96
2023-01-09T01:06:14.831Z,96
2023-01-09T01:06:45.901Z,96
2023-01-09T01:07:18.945Z,96
2023-01-09T01:07:49.872Z,96
2023-01-09T01:08:22.992Z,96
2023-01-09T01:08:54.000Z,96
2023-01-09T01:09:26.676Z,96
2023-01-09T01:09:57.823Z,96
2023-01-09T01:10:30.996Z,96
2023-01-09T01:11:01.983Z,96
2023-01-09T01:11:34.661Z,96
2023-01-09T01:12:05.789Z,96
2023-01-09T01:12:38.768Z,96
2023-01-09T01:13:09.660Z,96
2023-01-09T01:13:42.561Z,96
2023-01-09T01:14:13.831Z,96
2023-01-09T01:14:46.674Z,96
2023-01-09T01:15:18.829Z,96
2023-01-09T01:15:50.732Z,96
2023-01-09T01:16:22.078Z,96
2023-01-09T01:16:54.549Z,96
2023-01-09T01:17:25.781Z,96
2023-01-09T01:17:58.802Z,96
2023-01-09T01:18:29.892Z,96
2023-01-09T01:19:02.571Z,96
2023-01-09T01:19:33.809Z,96
2023-01-09T01:20:06.867Z,96
2023-01-09T01:20:37.787Z,96
2023-01-09T01:21:10.621Z,96
2023-01-09T01:21:41.951Z,96
2023-01-09T01:22:14.655Z,96
2023-01-09T01:22:45.821Z,96
2023-01-09T01:23:18.620Z,96
2023-01-09T01:23:49.819Z,96
2023-01-09T01:24:22.379Z,96
2023-01-09T01:24:53.735Z,96
2023-01-09T01:25:26.970Z,96
2023-01-09T01:25:57.843Z,96
2023-01-09T01:26:30.452Z,96
2023-01-09T01:27:01.772Z,96
2023-01-09T01:27:34.759Z,96
2023-01-09T01:28:05.729Z,96
2023-01-09T01:28:38.314Z,96
2023-01-09T01:29:09.692Z,96
2023-01-09T01:29:42.506Z,96
2023-01-09T01:30:14.601Z,96
2023-01-09T01:30:46.971Z,96
2023-01-09T01:31:18.109Z,96
2023-01-09T01:31:50.493Z,96
2023-01-09T01:32:21.907Z,96
2023-01-09T01:32:54.869Z,96
2023-01-09T01:33:25.949Z,96
2023-01-09T01:33:58.519Z,96
2023-01-09T01:34:29.888Z,96
2023-01-09T01:35:03.070Z,96
2023-01-09T01:35:33.757Z,96
2023-01-09T01:36:06.585Z,96
2023-01-09T01:36:37.847Z,96
2023-01-09T01:37:10.590Z,96
2023-01-09T01:37:41.824Z,96
2023-01-09T01:38:14.746Z,96
2023-01-09T01:38:45.968Z,96
2023-01-09T01:39:18.470Z,96
2023-01-09T01:39:49.837Z,96
2023-01-09T01:40:23.001Z,96
2023-01-09T01:40:53.781Z,96
2023-01-09T01:41:26.517Z,96
2023-01-09T01:41:57.725Z,96
2023-01-09T01:42:36.176Z,96
2023-01-09T01:43:01.743Z,96
2023-01-09T01:43:33.701Z,96
2023-01-09T01:44:06.545Z,96
2023-01-09T01:44:37.840Z,96
2023-01-09T01:45:11.352Z,96
2023-01-09T01:45:41.903Z,96
2023-01-09T01:46:14.667Z,96
2023-01-09T01:46:45.691Z,96
2023-01-09T01:47:01.847Z,96
2023-01-09T01:47:33.643Z,96
2023-01-09T01:48:05.674Z,96
2023-01-09T01:48:37.651Z,96
2023-01-09T01:49:09.824Z,96
2023-01-09T01:49:41.778Z,96
2023-01-09T01:50:14.194Z,96
2023-01-09T01:50:45.594Z,96
2023-01-09T01:51:17.805Z,96
2023-01-09T01:51:50.632Z,96
2023-01-09T01:52:21.990Z,96
2023-01-09T01:52:54.793Z,96
2023-01-09T01:53:25.892Z,96
2023-01-09T01:53:58.735Z,96
2023-01-09T01:54:29.980Z,96
2023-01-09T01:55:02.890Z,96
2023-01-09T01:55:33.907Z,96
2023-01-09T01:56:06.852Z,96
2023-01-09T01:56:37.808Z,96
2023-01-09T01:57:10.779Z,96
2023-01-09T01:57:41.921Z,96
2023-01-09T01:58:14.719Z,96
2023-01-09T01:58:45.781Z,96
2023-01-09T01:59:18.521Z,96
2023-01-09T01:59:49.921Z,96
2023-01-09T02:00:23.852Z,96
2023-01-09T02:00:53.993Z,96
2023-01-09T02:01:26.823Z,96
2023-01-09T02:01:57.897Z,96
2023-01-09T02:02:30.907Z,96
2023-01-09T02:03:01.917Z,96
2023-01-09T02:03:34.680Z,96
2023-01-09T02:04:05.837Z,96
2023-01-09T02:04:38.666Z,96
2023-01-09T02:05:10.187Z,96
2023-01-09T02:05:42.632Z,96
2023-01-09T02:06:13.647Z,96
2023-01-09T02:06:46.614Z,96
2023-01-09T02:07:17.721Z,96
2023-01-09T02:07:50.732Z,96
2023-01-09T02:08:21.540Z,96
2023-01-09T02:08:54.644Z,96
2023-01-09T02:09:25.657Z,96
2023-01-09T02:09:58.511Z,96
2023-01-09T02:10:30.076Z,96
2023-01-09T02:11:02.480Z,96
2023-01-09T02:11:33.743Z,96
2023-01-09T02:12:07.002Z,96
2023-01-09T02:12:37.699Z,96
2023-01-09T02:13:10.667Z,96
2023-01-09T02:13:41.823Z,96
2023-01-09T02:14:14.887Z,96
2023-01-09T02:14:45.888Z,96
2023-01-09T02:15:19.613Z,96
2023-01-09T02:15:50.163Z,96
2023-01-09T02:16:22.644Z,96
2023-01-09T02:16:53.786Z,96
2023-01-09T02:17:26.776Z,96
2023-01-09T02:17:57.954Z,96
2023-01-09T02:18:30.775Z,96
2023-01-09T02:19:01.885Z,96
2023-01-09T02:19:34.803Z,96
2023-01-09T02:20:05.931Z,96
2023-01-09T02:20:38.768Z,96
2023-01-09T02:21:09.852Z,96
2023-01-09T02:21:42.555Z,96
2023-01-09T02:22:13.673Z,96
2023-01-09T02:22:46.746Z,96
2023-01-09T02:23:17.944Z,96
2023-01-09T02:23:50.920Z,96
2023-01-09T02:24:21.805Z,96
2023-01-09T02:24:54.774Z,96
2023-01-09T02:25:26.364Z,96
2023-01-09T02:25:58.901Z,96
2023-01-09T02:26:29.745Z,96
2023-01-09T02:27:02.796Z,96
2023-01-09T02:27:33.672Z,96
2023-01-09T02:28:06.732Z,96
2023-01-09T02:28:37.847Z,96
2023-01-09T02:29:11.033Z,96
2023-01-09T02:29:41.786Z,96
2023-01-09T02:30:15.628Z,96
2023-01-09T02:30:46.031Z,96
2023-01-09T02:31:18.851Z,96
2023-01-09T02:31:50.010Z,96
2023-01-09T02:32:22.674Z,96
2023-01-09T02:32:53.748Z,96
2023-01-09T02:33:26.605Z,96
2023-01-09T02:33:57.720Z,96
2023-01-09T02:34:30.532Z,96
2023-01-09T02:35:02.315Z,96
2023-01-09T02:35:34.832Z,96
2023-01-09T02:36:05.819Z,96
2023-01-09T02:36:38.823Z,96
2023-01-09T02:37:09.673Z,96
2023-01-09T02:37:42.807Z,96
2023-01-09T02:38:13.808Z,96
2023-01-09T02:38:46.548Z,96
2023-01-09T02:39:17.685Z,96
2023-01-09T02:39:50.757Z,96
2023-01-09T02:40:22.268Z,96
2023-01-09T02:40:54.585Z,96
2023-01-09T02:41:25.845Z,96
2023-01-09T02:41:58.852Z,96
2023-01-09T02:42:29.720Z,96
2023-01-09T02:43:02.653Z,96
2023-01-09T02:43:33.847Z,96
2023-01-09T02:44:06.592Z,96
2023-01-09T02:44:37.757Z,96
2023-01-09T02:45:11.440Z,96
2023-01-09T02:45:42.071Z,96
2023-01-09T02:46:14.813Z,96
2023-01-09T02:46:45.794Z,96
2023-01-09T02:47:18.864Z,96
2023-01-09T02:47:49.921Z,96
2023-01-09T02:48:22.525Z,96
2023-01-09T02:48:53.804Z,96
2023-01-09T02:49:26.530Z,96
2023-01-09T02:49:57.680Z,96
2023-01-09T02:50:30.992Z,96
2023-01-09T02:51:01.842Z,96
2023-01-09T02:51:34.746Z,96
2023-01-09T02:52:05.841Z,96
2023-01-09T02:52:38.666Z,96
2023-01-09T02:53:09.767Z,96
2023-01-09T02:53:42.574Z,96
2023-01-09T02:54:13.724Z,96
2023-01-09T02:54:46.613Z,96
2023-01-09T02:55:18.165Z,96
2023-01-09T02:55:50.838Z,96
2023-01-09T02:56:21.684Z,96
2023-01-09T02:56:54.867Z,96
2023-01-09T02:57:25.627Z,96
2023-01-09T02:57:58.689Z,96
2023-01-09T02:58:29.831Z,96
2023-01-09T02:59:02.785Z,97
2023-01-09T02:59:33.799Z,97
2023-01-09T03:00:07.988Z,97
2023-01-09T03:00:37.940Z,97
2023-01-09T03:01:10.821Z,97
2023-01-09T03:01:41.894Z,97
2023-01-09T03:02:14.939Z,96
2023-01-09T03:02:45.927Z,96
2023-01-09T03:03:18.771Z,97
2023-01-09T03:03:49.818Z,97
2023-01-09T03:04:22.800Z,97
2023-01-09T03:04:53.672Z,97
2023-01-09T03:05:27.077Z,97
2023-01-09T03:05:57.863Z,97
2023-01-09T03:06:30.637Z,97
2023-01-09T03:07:01.769Z,97
2023-01-09T03:07:34.955Z,97
2023-01-09T03:08:05.942Z,97
2023-01-09T03:08:38.697Z,97
2023-01-09T03:09:09.769Z,97
2023-01-09T03:09:42.702Z,97
2023-01-09T03:10:13.929Z,97
2023-01-09T03:10:46.534Z,97
2023-01-09T03:11:17.677Z,97
2023-01-09T03:11:50.565Z,97
2023-01-09T03:12:21.499Z,97
2023-01-09T03:12:54.675Z,97
2023-01-09T03:13:25.797Z,97
2023-01-09T03:13:58.683Z,97
2023-01-09T03:14:29.736Z,97
2023-01-09T03:15:04.087Z,97
2023-01-09T03:15:34.113Z,97
2023-01-09T03:16:06.823Z,97
2023-01-09T03:16:37.804Z,97
2023-01-09T03:17:10.759Z,97
2023-01-09T03:17:41.680Z,97
2023-01-09T03:18:14.777Z,97
2023-01-09T03:18:45.802Z,97
2023-01-09T03:19:18.717Z,97
2023-01-09T03:19:49.713Z,97
2023-01-09T03:20:23.245Z,97
2023-01-09T03:20:53.820Z,97
2023-01-09T03:21:26.549Z,97
2023-01-09T03:21:57.802Z,97
2023-01-09T03:22:30.769Z,97
2023-01-09T03:23:01.891Z,97
2023-01-09T03:23:34.772Z,97
2023-01-09T03:24:05.885Z,97
2023-01-09T03:24:38.628Z,97
2023-01-09T03:25:10.030Z,97
2023-01-09T03:25:42.499Z,97
2023-01-09T03:26:13.827Z,97
2023-01-09T03:26:46.707Z,97
2023-01-09T03:27:17.767Z,97
2023-01-09T03:27:50.907Z,97
2023-01-09T03:28:21.931Z,97
2023-01-09T03:28:54.585Z,97
2023-01-09T03:29:25.727Z,97
2023-01-09T03:29:58.531Z,97
2023-01-09T03:30:30.858Z,97
2023-01-09T03:31:02.595Z,97
2023-01-09T03:31:33.991Z,97
2023-01-09T03:32:06.999Z,97
2023-01-09T03:32:37.773Z,97
2023-01-09T03:33:10.569Z,97
2023-01-09T03:33:41.765Z,97
2023-01-09T03:34:14.730Z,97
2023-01-09T03:34:45.780Z,97
2023-01-09T03:35:18.844Z,97
2023-01-09T03:35:49.793Z,97
2023-01-09T03:36:22.554Z,97
2023-01-09T03:36:53.775Z,97
2023-01-09T03:37:26.779Z,97
2023-01-09T03:37:57.653Z,97
2023-01-09T03:38:30.914Z,97
2023-01-09T03:39:01.935Z,97
2023-01-09T03:39:34.528Z,97
2023-01-09T03:40:06.035Z,97
2023-01-09T03:40:38.542Z,97
2023-01-09T03:41:09.877Z,97
2023-01-09T03:41:42.411Z,97
2023-01-09T03:42:13.679Z,97
2023-01-09T03:42:46.740Z,97
2023-01-09T03:43:17.697Z,97
2023-01-09T03:43:50.628Z,97
2023-01-09T03:44:21.763Z,97
2023-01-09T03:44:54.775Z,97
2023-01-09T03:45:26.912Z,97
2023-01-09T03:45:59.075Z,97
2023-01-09T03:46:29.779Z,97
2023-01-09T03:47:02.582Z,97
2023-01-09T03:47:33.782Z,97
2023-01-09T03:48:06.864Z,97
2023-01-09T03:48:37.870Z,97
2023-01-09T03:49:10.703Z,96
2023-01-09T03:49:41.828Z,96
2023-01-09T03:50:14.848Z,97
2023-01-09T03:50:45.812Z,97
2023-01-09T03:51:18.717Z,97
2023-01-09T03:51:49.817Z,97
2023-01-09T03:52:22.492Z,97
2023-01-09T03:52:53.729Z,97
2023-01-09T03:53:26.770Z,96
2023-01-09T03:53:57.961Z,96
2023-01-09T03:54:30.598Z,96
2023-01-09T03:55:02.132Z,96
2023-01-09T03:55:34.943Z,96
2023-01-09T03:56:05.841Z,96
2023-01-09T03:56:38.510Z,96
2023-01-09T03:57:09.713Z,96
2023-01-09T03:57:42.967Z,96
2023-01-09T03:58:13.799Z,96
2023-01-09T03:58:46.505Z,96
2023-01-09T03:59:17.835Z,96
2023-01-09T03:59:50.627Z,96
2023-01-09T04:00:22.900Z,96
2023-01-09T04:00:54.902Z,96
2023-01-09T04:01:26.067Z,96
2023-01-09T04:01:58.879Z,96
2023-01-09T04:02:29.865Z,96
2023-01-09T04:03:02.962Z,96
2023-01-09T04:03:33.758Z,96
2023-01-09T04:04:06.727Z,96
2023-01-09T04:04:37.797Z,96
2023-01-09T04:05:10.950Z,96
2023-01-09T04:05:41.800Z,96
2023-01-09T04:06:14.680Z,96
2023-01-09T04:06:45.772Z,96
2023-01-09T04:07:18.738Z,96
2023-01-09T04:07:49.897Z,96
2023-01-09T04:08:22.787Z,96
2023-01-09T04:08:53.775Z,96
2023-01-09T04:09:26.743Z,96
2023-01-09T04:09:57.847Z,96
2023-01-09T04:10:30.788Z,96
2023-01-09T04:11:01.791Z,96
2023-01-09T04:11:35.003Z,96
2023-01-09T04:12:05.869Z,96
2023-01-09T04:12:38.605Z,96
2023-01-09T04:13:09.880Z,96
2023-01-09T04:13:42.796Z,96
2023-01-09T04:14:14.022Z,96
2023-01-09T04:14:46.867Z,96
2023-01-09T04:15:18.710Z,96
2023-01-09T04:15:50.949Z,96
2023-01-09T04:16:21.880Z,96
2023-01-09T04:16:54.731Z,96
2023-01-09T04:17:25.923Z,96
2023-01-09T04:17:58.895Z,96
2023-01-09T04:18:29.762Z,96
2023-01-09T04:19:02.665Z,96
2023-01-09T04:19:33.839Z,96
2023-01-09T04:20:06.682Z,96
2023-01-09T04:20:37.749Z,96
2023-01-09T04:21:10.585Z,96
2023-01-09T04:21:41.715Z,96
2023-01-09T04:22:14.571Z,96
2023-01-09T04:22:45.765Z,96
2023-01-09T04:23:18.990Z,96
2023-01-09T04:23:49.679Z,96
2023-01-09T04:24:22.797Z,96
2023-01-09T04:24:53.770Z,96
2023-01-09T04:25:27.053Z,96
2023-01-09T04:25:57.730Z,96
2023-01-09T04:26:30.619Z,96
2023-01-09T04:27:01.857Z,96
2023-01-09T04:27:34.720Z,96
2023-01-09T04:28:06.040Z,96
2023-01-09T04:28:38.652Z,96
2023-01-09T04:29:09.731Z,96
2023-01-09T04:29:42.935Z,96
2023-01-09T04:30:14.724Z,96
2023-01-09T04:30:46.771Z,96
2023-01-09T04:31:17.773Z,96
2023-01-09T04:31:50.524Z,96
2023-01-09T04:32:21.898Z,96
2023-01-09T04:32:54.629Z,96
2023-01-09T04:33:25.712Z,96
2023-01-09T04:33:58.595Z,96
2023-01-09T04:34:29.947Z,96
2023-01-09T04:35:02.949Z,96
2023-01-09T04:35:33.860Z,96
2023-01-09T04:36:06.751Z,96
2023-01-09T04:36:37.729Z,96
2023-01-09T04:37:10.723Z,96
2023-01-09T04:37:41.831Z,96
2023-01-09T04:38:14.937Z,96
2023-01-09T04:38:45.831Z,96
2023-01-09T04:39:18.792Z,96
2023-01-09T04:39:49.948Z,96
2023-01-09T04:40:23.091Z,96
2023-01-09T04:40:53.874Z,96
2023-01-09T04:41:26.674Z,96
2023-01-09T04:41:57.994Z,96
2023-01-09T04:42:30.813Z,96
2023-01-09T04:43:01.897Z,96
2023-01-09T04:43:34.691Z,96
2023-01-09T04:44:05.812Z,96
2023-01-09T04:44:38.618Z,96
2023-01-09T04:45:10.755Z,96
2023-01-09T04:45:42.688Z,96
2023-01-09T04:46:13.864Z,96
2023-01-09T04:46:46.636Z,96
2023-01-09T04:47:17.880Z,96
2023-01-09T04:47:51.072Z,96
2023-01-09T04:48:21.787Z,96
2023-01-09T04:48:54.584Z,96
2023-01-09T04:49:25.948Z,96
2023-01-09T04:49:58.436Z,96
2023-01-09T04:50:31.429Z,96
2023-01-09T04:51:02.665Z,96
2023-01-09T04:51:33.771Z,96
2023-01-09T04:52:06.915Z,96
2023-01-09T04:52:39.077Z,96
2023-01-09T04:53:10.683Z,96
2023-01-09T04:53:41.727Z,96
2023-01-09T04:54:14.832Z,96
2023-01-09T04:54:45.900Z,96
2023-01-09T04:55:18.817Z,96
2023-01-09T04:55:49.845Z,96
2023-01-09T04:56:22.657Z,96
2023-01-09T04:56:53.864Z,96
2023-01-09T04:57:26.683Z,96
2023-01-09T04:57:57.830Z,96
2023-01-09T04:58:30.701Z,96
2023-01-09T04:59:01.703Z,96
2023-01-09T04:59:34.481Z,96
2023-01-09T05:00:07.388Z,96
2023-01-09T05:00:38.619Z,96
2023-01-09T05:01:09.791Z,96
2023-01-09T05:01:42.674Z,96
2023-01-09T05:02:13.892Z,96
2023-01-09T05:02:46.739Z,97
2023-01-09T05:03:17.835Z,97
2023-01-09T05:03:50.693Z,97
2023-01-09T05:04:21.882Z,97
2023-01-09T05:04:54.585Z,97
2023-01-09T05:05:26.303Z,97
2023-01-09T05:05:58.653Z,97
2023-01-09T05:06:29.778Z,97
2023-01-09T05:07:02.790Z,97
2023-01-09T05:07:33.735Z,97
2023-01-09T05:08:06.674Z,97
2023-01-09T05:08:37.823Z,97
2023-01-09T05:09:11.788Z,97
2023-01-09T05:09:41.739Z,97
2023-01-09T05:10:15.071Z,97
2023-01-09T05:10:45.775Z,97
2023-01-09T05:11:18.536Z,97
2023-01-09T05:11:49.850Z,97
2023-01-09T05:12:22.861Z,97
2023-01-09T05:12:53.850Z,97
2023-01-09T05:13:26.799Z,98
2023-01-09T05:13:57.882Z,98
2023-01-09T05:14:30.645Z,98
2023-01-09T05:15:03.191Z,98
2023-01-09T05:15:35.149Z,98
2023-01-09T05:16:05.983Z,98
2023-01-09T05:16:38.592Z,98
2023-01-09T05:17:09.772Z,98
2023-01-09T05:17:42.909Z,98
2023-01-09T05:18:13.841Z,98
2023-01-09T05:18:46.680Z,98
2023-01-09T05:19:17.847Z,98
2023-01-09T05:19:50.713Z,98
2023-01-09T05:20:21.816Z,98
2023-01-09T05:20:54.723Z,98
2023-01-09T05:21:25.891Z,98
2023-01-09T05:21:58.600Z,98
2023-01-09T05:22:29.788Z,98
2023-01-09T05:23:02.734Z,98
2023-01-09T05:23:33.950Z,98
2023-01-09T05:24:06.470Z,98
2023-01-09T05:24:37.775Z,98
2023-01-09T05:25:10.975Z,97
2023-01-09T05:25:41.684Z,97
2023-01-09T05:26:14.637Z,97
2023-01-09T05:26:45.815Z,97
2023-01-09T05:27:18.771Z,97
2023-01-09T05:27:49.728Z,97
2023-01-09T05:28:22.778Z,97
2023-01-09T05:28:53.872Z,97
2023-01-09T05:29:26.371Z,97
2023-01-09T05:29:57.835Z,97
2023-01-09T05:30:32.401Z,97
2023-01-09T05:31:02.033Z,97
2023-01-09T05:31:34.884Z,97
2023-01-09T05:32:05.921Z,97
2023-01-09T05:32:38.740Z,97
2023-01-09T05:33:09.826Z,97
2023-01-09T05:33:42.544Z,97
2023-01-09T05:34:13.888Z,97
2023-01-09T05:34:46.741Z,97
2023-01-09T05:35:18.121Z,97
2023-01-09T05:35:50.782Z,97
2023-01-09T05:36:22.005Z,97
2023-01-09T05:36:54.819Z,97
2023-01-09T05:37:25.755Z,97
2023-01-09T05:37:58.813Z,97
2023-01-09T05:38:29.742Z,97
2023-01-09T05:39:02.811Z,97
2023-01-09T05:39:33.794Z,97
2023-01-09T05:40:07.098Z,97
2023-01-09T05:40:40.348Z,97
2023-01-09T05:41:10.744Z,97
2023-01-09T05:41:41.990Z,97
2023-01-09T05:42:14.738Z,97
2023-01-09T05:42:45.874Z,97
2023-01-09T05:43:18.919Z,97
2023-01-09T05:43:50.059Z,97
2023-01-09T05:44:22.478Z,97
2023-01-09T05:44:53.952Z,97
2023-01-09T05:45:28.335Z,96
2023-01-09T05:45:58.064Z,96
2023-01-09T05:46:30.992Z,96
2023-01-09T05:47:02.930Z,96
2023-01-09T05:47:35.091Z,96
2023-01-09T05:48:06.089Z,96
2023-01-09T05:48:38.766Z,96
2023-01-09T05:49:09.901Z,96
2023-01-09T05:49:43.582Z,96
2023-01-09T05:50:14.356Z,96
2023-01-09T05:50:46.877Z,96
2023-01-09T05:51:17.731Z,96
2023-01-09T05:51:50.898Z,96
2023-01-09T05:52:21.967Z,96
2023-01-09T05:52:54.734Z,95
2023-01-09T05:53:25.730Z,95
2023-01-09T05:53:58.644Z,95
2023-01-09T05:54:29.938Z,95
2023-01-09T05:55:03.774Z,95
2023-01-09T05:55:33.846Z,95
2023-01-09T05:56:06.756Z,94
2023-01-09T05:56:37.701Z,94
2023-01-09T05:57:10.751Z,94
2023-01-09T05:57:41.853Z,94
2023-01-09T05:58:14.845Z,93
2023-01-09T05:58:45.788Z,93
2023-01-09T05:59:02.018Z,93
2023-01-09T05:59:33.818Z,93
2023-01-09T06:00:07.340Z,93
2023-01-09T06:00:37.968Z,93
2023-01-09T06:01:09.853Z,92
2023-01-09T06:01:42.702Z,92
2023-01-09T06:02:14.027Z,91
2023-01-09T06:02:46.702Z,91
2023-01-09T06:03:17.940Z,91
2023-01-09T06:03:50.762Z,91
2023-01-09T06:04:22.026Z,91
2023-01-09T06:04:54.716Z,91
2023-01-09T06:05:26.115Z,91
2023-01-09T06:05:58.740Z,91
2023-01-09T06:06:29.835Z,91
2023-01-09T06:07:02.749Z,91
2023-01-09T06:07:33.889Z,91
2023-01-09T06:08:06.882Z,91
2023-01-09T06:08:37.844Z,90
2023-01-09T06:09:10.736Z,90
2023-01-09T06:10:15.003Z,90
2023-01-09T06:10:45.847Z,92
2023-01-09T06:11:18.888Z,92
2023-01-09T06:11:49.816Z,94
2023-01-09T06:12:22.631Z,94
2023-01-09T06:12:53.842Z,93
2023-01-09T06:13:26.816Z,93
2023-01-09T06:13:57.757Z,92
2023-01-09T06:14:30.803Z,92
2023-01-09T06:15:03.491Z,91
2023-01-09T06:15:35.011Z,91
2023-01-09T06:16:05.870Z,89
2023-01-09T06:16:38.806Z,89
2023-01-09T06:17:09.823Z,89
2023-01-09T06:17:42.716Z,89
2023-01-09T06:18:13.871Z,89
2023-01-09T06:18:46.472Z,89
2023-01-09T06:19:17.761Z,89
2023-01-09T06:19:50.577Z,89
2023-01-09T06:20:22.194Z,88
2023-01-09T06:20:54.660Z,88
2023-01-09T06:21:25.770Z,88
2023-01-09T06:21:58.681Z,88
2023-01-09T06:22:29.736Z,88
2023-01-09T06:23:02.693Z,88
2023-01-09T06:23:33.912Z,88
2023-01-09T06:24:06.572Z,88
2023-01-09T06:24:37.789Z,88
2023-01-09T06:25:10.881Z,88
2023-01-09T06:25:41.905Z,88
2023-01-09T06:26:14.467Z,88
2023-01-09T06:26:45.814Z,88
2023-01-09T06:27:18.972Z,88
2023-01-09T06:27:50.057Z,88
2023-01-09T06:28:23.122Z,88
2023-01-09T06:28:53.815Z,88
2023-01-09T06:29:26.592Z,88
2023-01-09T06:29:57.920Z,88
2023-01-09T06:30:31.875Z,88
2023-01-09T06:31:02.017Z,88
2023-01-09T06:31:34.918Z,88
2023-01-09T06:32:05.767Z,88
2023-01-09T06:32:38.981Z,88
2023-01-09T06:33:09.886Z,88
2023-01-09T06:33:42.570Z,88
2023-01-09T06:34:13.752Z,88
2023-01-09T06:34:46.774Z,88
2023-01-09T06:35:18.157Z,87
2023-01-09T06:35:50.686Z,87
2023-01-09T06:36:22.621Z,88
2023-01-09T06:36:54.562Z,88
2023-01-09T06:37:25.834Z,88
2023-01-09T06:37:58.639Z,88
2023-01-09T06:38:29.882Z,88
2023-01-09T06:39:02.642Z,88
2023-01-09T06:39:33.829Z,88
2023-01-09T06:40:06.883Z,88
2023-01-09T06:40:37.966Z,88
2023-01-09T06:41:10.414Z,88
2023-01-09T06:41:41.863Z,88
2023-01-09T06:42:14.623Z,88
2023-01-09T06:42:45.870Z,88
2023-01-09T06:43:18.534Z,88
2023-01-09T06:43:49.775Z,88
2023-01-09T06:44:22.627Z,88
2023-01-09T06:44:53.691Z,88
2023-01-09T06:45:27.759Z,88
2023-01-09T06:45:58.124Z,88
2023-01-09T06:46:30.758Z,88
2023-01-09T06:47:01.764Z,88
2023-01-09T06:47:34.625Z,88
2023-01-09T06:48:05.863Z,88
2023-01-09T06:48:38.363Z,88
2023-01-09T06:49:10.095Z,88
2023-01-09T06:49:42.689Z,88
2023-01-09T06:50:14.239Z,88
2023-01-09T06:50:46.614Z,88
2023-01-09T06:51:17.893Z,88
2023-01-09T06:51:50.732Z,88
2023-01-09T06:52:21.772Z,88
2023-01-09T06:52:54.575Z,88
2023-01-09T06:53:25.866Z,88
2023-01-09T06:53:58.565Z,88
2023-01-09T06:54:29.739Z,88
2023-01-09T06:55:02.967Z,88
2023-01-09T06:55:33.899Z,88
2023-01-09T06:56:06.928Z,88
2023-01-09T06:56:37.845Z,88
2023-01-09T06:57:10.887Z,88
2023-01-09T06:57:42.068Z,88
2023-01-09T06:58:15.505Z,88
2023-01-09T06:58:45.735Z,88
2023-01-09T06:59:18.751Z,88
2023-01-09T06:59:49.776Z,88
2023-01-09T07:00:23.771Z,88
2023-01-09T07:00:53.950Z,88
2023-01-09T07:01:26.943Z,88
2023-01-09T07:01:57.789Z,88
2023-01-09T07:02:30.514Z,88
2023-01-09T07:03:01.883Z,88
2023-01-09T07:03:34.693Z,88
2023-01-09T07:04:05.982Z,88
2023-01-09T07:04:38.576Z,88
2023-01-09T07:05:10.021Z,88
2023-01-09T07:05:42.667Z,88
2023-01-09T07:06:13.906Z,88
2023-01-09T07:06:46.596Z,88
2023-01-09T07:07:17.796Z,88
2023-01-09T07:07:50.701Z,88
2023-01-09T07:08:21.902Z,88
2023-01-09T07:08:54.617Z,88
2023-01-09T07:09:25.786Z,88
2023-01-09T07:09:58.650Z,88
2023-01-09T07:10:30.327Z,88
2023-01-09T07:11:03.622Z,88
2023-01-09T07:11:33.871Z,88
2023-01-09T07:12:06.792Z,88
2023-01-09T07:12:37.769Z,87
2023-01-09T07:13:10.586Z,87
2023-01-09T07:13:43.560Z,87
2023-01-09T07:14:14.932Z,87
2023-01-09T07:14:45.994Z,88
2023-01-09T07:15:19.712Z,88
2023-01-09T07:15:50.169Z,88
2023-01-09T07:16:23.063Z,88
2023-01-09T07:16:54.104Z,87
2023-01-09T07:17:27.822Z,87
2023-01-09T07:17:58.760Z,87
2023-01-09T07:18:30.934Z,87
2023-01-09T07:19:02.672Z,87
2023-01-09T07:19:34.840Z,87
2023-01-09T07:20:07.107Z,87
2023-01-09T07:20:38.804Z,87
2023-01-09T07:21:10.070Z,87
2023-01-09T07:21:42.948Z,87
2023-01-09T07:22:13.986Z,87
2023-01-09T07:22:47.233Z,87
2023-01-09T07:23:18.509Z,87
2023-01-09T07:23:51.295Z,87
2023-01-09T07:24:21.972Z,87
2023-01-09T07:24:55.030Z,87
2023-01-09T07:25:26.756Z,87
2023-01-09T07:25:59.014Z,87
2023-01-09T07:26:30.409Z,87
2023-01-09T07:27:03.003Z,87
2023-01-09T07:27:34.089Z,87
2023-01-09T07:28:07.377Z,87
2023-01-09T07:28:37.999Z,87
2023-01-09T07:29:10.999Z,87
2023-01-09T07:29:42.001Z,87
2023-01-09T07:30:16.018Z,87
2023-01-09T07:30:46.221Z,87
2023-01-09T07:31:18.899Z,87
2023-01-09T07:31:49.973Z,87
2023-01-09T07:32:23.088Z,87
2023-01-09T07:32:54.127Z,87
2023-01-09T07:33:26.819Z,87
2023-01-09T07:33:58.048Z,87
2023-01-09T07:34:30.930Z,87
2023-01-09T07:35:02.529Z,87
2023-01-09T07:35:34.800Z,87
2023-01-09T07:36:06.117Z,87